sensor_id;sensor_type;location;lat;lon;timestamp;P1;durP1;ratioP1;P2;durP2;ratioP2
7150;SDS011;3617;48.836;9.172;2022-08-19T00:00:09;11.38;;;8.43;;
7150;SDS011;3617;48.836;9.172;2022-08-19T00:02:36;11.82;;;8.75;;
7150;SDS011;3617;48.836;9.172;2022-08-19T00:05:02;11.75;;;8.73;;
7150;SDS011;3617;48.836;9.172;2022-08-19T00:07:29;12.95;;;8.65;;
7150;SDS011;3617;48.836;9.172;2022-08-19T00:09:55;11.80;;;9.05;;
7150;SDS011;3617;48.836;9.172;2022-08-19T00:12:21;10.88;;;8.10;;
7150;SDS011;3617;48.836;9.172;2022-08-19T00:14:47;10.90;;;8.20;;
7150;SDS011;3617;48.836;9.172;2022-08-19T00:17:13;11.38;;;8.52;;
7150;SDS011;3617;48.836;9.172;2022-08-19T00:19:39;11.68;;;8.30;;
7150;SDS011;3617;48.836;9.172;2022-08-19T00:22:05;10.80;;;8.38;;
7150;SDS011;3617;48.836;9.172;2022-08-19T00:24:34;11.63;;;8.48;;
7150;SDS011;3617;48.836;9.172;2022-08-19T00:27:02;11.68;;;8.40;;
7150;SDS011;3617;48.836;9.172;2022-08-19T00:29:28;12.98;;;8.57;;
7150;SDS011;3617;48.836;9.172;2022-08-19T00:31:55;10.70;;;7.80;;
7150;SDS011;3617;48.836;9.172;2022-08-19T00:34:23;12.45;;;8.20;;
7150;SDS011;3617;48.836;9.172;2022-08-19T00:36:52;14.45;;;8.82;;
7150;SDS011;3617;48.836;9.172;2022-08-19T00:39:18;11.32;;;8.00;;
7150;SDS011;3617;48.836;9.172;2022-08-19T00:41:46;11.63;;;8.57;;
7150;SDS011;3617;48.836;9.172;2022-08-19T00:44:16;11.73;;;7.78;;
7150;SDS011;3617;48.836;9.172;2022-08-19T00:46:45;10.43;;;7.95;;
7150;SDS011;3617;48.836;9.172;2022-08-19T00:49:13;11.85;;;8.45;;
7150;SDS011;3617;48.836;9.172;2022-08-19T00:51:41;11.50;;;8.27;;
7150;SDS011;3617;48.836;9.172;2022-08-19T00:54:08;14.15;;;8.63;;
7150;SDS011;3617;48.836;9.172;2022-08-19T00:56:34;13.05;;;8.38;;
7150;SDS011;3617;48.836;9.172;2022-08-19T00:59:01;12.10;;;8.68;;
7150;SDS011;3617;48.836;9.172;2022-08-19T01:01:27;13.63;;;8.88;;
7150;SDS011;3617;48.836;9.172;2022-08-19T01:03:53;13.00;;;8.52;;
7150;SDS011;3617;48.836;9.172;2022-08-19T01:06:20;13.02;;;8.23;;
7150;SDS011;3617;48.836;9.172;2022-08-19T01:08:46;12.27;;;9.23;;
7150;SDS011;3617;48.836;9.172;2022-08-19T01:11:12;12.68;;;8.90;;
7150;SDS011;3617;48.836;9.172;2022-08-19T01:13:38;11.80;;;8.60;;
7150;SDS011;3617;48.836;9.172;2022-08-19T01:16:05;10.95;;;8.38;;
7150;SDS011;3617;48.836;9.172;2022-08-19T01:18:32;11.48;;;8.30;;
7150;SDS011;3617;48.836;9.172;2022-08-19T01:21:02;13.40;;;8.85;;
7150;SDS011;3617;48.836;9.172;2022-08-19T01:26:38;12.93;;;8.93;;
7150;SDS011;3617;48.836;9.172;2022-08-19T01:29:04;14.20;;;8.85;;
7150;SDS011;3617;48.836;9.172;2022-08-19T01:31:32;12.35;;;8.73;;
7150;SDS011;3617;48.836;9.172;2022-08-19T01:33:59;13.25;;;9.13;;
7150;SDS011;3617;48.836;9.172;2022-08-19T01:36:30;13.80;;;9.00;;
7150;SDS011;3617;48.836;9.172;2022-08-19T01:38:57;12.05;;;8.73;;
7150;SDS011;3617;48.836;9.172;2022-08-19T01:41:24;16.33;;;9.82;;
7150;SDS011;3617;48.836;9.172;2022-08-19T01:43:51;12.48;;;8.80;;
7150;SDS011;3617;48.836;9.172;2022-08-19T01:46:18;14.13;;;9.77;;
7150;SDS011;3617;48.836;9.172;2022-08-19T01:48:44;12.18;;;8.82;;
7150;SDS011;3617;48.836;9.172;2022-08-19T01:51:10;16.65;;;10.05;;
7150;SDS011;3617;48.836;9.172;2022-08-19T01:53:37;14.38;;;9.57;;
7150;SDS011;3617;48.836;9.172;2022-08-19T01:56:03;12.25;;;9.25;;
7150;SDS011;3617;48.836;9.172;2022-08-19T01:58:32;13.38;;;9.00;;
7150;SDS011;3617;48.836;9.172;2022-08-19T02:01:01;14.27;;;9.90;;
7150;SDS011;3617;48.836;9.172;2022-08-19T02:03:27;13.18;;;9.30;;
7150;SDS011;3617;48.836;9.172;2022-08-19T02:05:55;12.70;;;8.85;;
7150;SDS011;3617;48.836;9.172;2022-08-19T02:08:21;14.68;;;9.55;;
7150;SDS011;3617;48.836;9.172;2022-08-19T02:10:47;15.23;;;9.90;;
7150;SDS011;3617;48.836;9.172;2022-08-19T02:13:14;14.40;;;10.05;;
7150;SDS011;3617;48.836;9.172;2022-08-19T02:15:40;17.73;;;10.60;;
7150;SDS011;3617;48.836;9.172;2022-08-19T02:18:07;15.27;;;10.52;;
7150;SDS011;3617;48.836;9.172;2022-08-19T02:20:33;14.05;;;9.85;;
7150;SDS011;3617;48.836;9.172;2022-08-19T02:23:00;16.75;;;10.65;;
7150;SDS011;3617;48.836;9.172;2022-08-19T02:25:26;14.95;;;10.00;;
7150;SDS011;3617;48.836;9.172;2022-08-19T02:27:53;16.40;;;10.65;;
7150;SDS011;3617;48.836;9.172;2022-08-19T02:30:19;15.18;;;10.13;;
7150;SDS011;3617;48.836;9.172;2022-08-19T02:32:45;16.23;;;10.70;;
7150;SDS011;3617;48.836;9.172;2022-08-19T02:35:12;16.27;;;10.73;;
7150;SDS011;3617;48.836;9.172;2022-08-19T02:37:38;16.17;;;11.38;;
7150;SDS011;3617;48.836;9.172;2022-08-19T02:40:23;16.30;;;11.25;;
7150;SDS011;3617;48.836;9.172;2022-08-19T02:42:49;20.00;;;12.57;;
7150;SDS011;3617;48.836;9.172;2022-08-19T02:45:15;17.50;;;11.68;;
7150;SDS011;3617;48.836;9.172;2022-08-19T02:47:41;17.65;;;11.82;;
7150;SDS011;3617;48.836;9.172;2022-08-19T02:50:07;17.80;;;11.57;;
7150;SDS011;3617;48.836;9.172;2022-08-19T02:52:34;18.50;;;11.73;;
7150;SDS011;3617;48.836;9.172;2022-08-19T02:55:00;17.35;;;11.95;;
7150;SDS011;3617;48.836;9.172;2022-08-19T02:57:26;20.15;;;12.50;;
7150;SDS011;3617;48.836;9.172;2022-08-19T02:59:53;19.10;;;12.60;;
7150;SDS011;3617;48.836;9.172;2022-08-19T03:02:19;17.73;;;11.73;;
7150;SDS011;3617;48.836;9.172;2022-08-19T03:04:45;17.73;;;11.48;;
7150;SDS011;3617;48.836;9.172;2022-08-19T03:07:15;19.00;;;12.13;;
7150;SDS011;3617;48.836;9.172;2022-08-19T03:09:41;19.45;;;12.43;;
7150;SDS011;3617;48.836;9.172;2022-08-19T03:12:07;18.13;;;12.15;;
7150;SDS011;3617;48.836;9.172;2022-08-19T03:14:33;17.95;;;12.55;;
7150;SDS011;3617;48.836;9.172;2022-08-19T03:17:00;19.02;;;13.32;;
7150;SDS011;3617;48.836;9.172;2022-08-19T03:19:26;17.33;;;11.63;;
7150;SDS011;3617;48.836;9.172;2022-08-19T03:21:52;18.50;;;12.80;;
7150;SDS011;3617;48.836;9.172;2022-08-19T03:24:20;21.07;;;13.00;;
7150;SDS011;3617;48.836;9.172;2022-08-19T03:26:47;18.65;;;13.02;;
7150;SDS011;3617;48.836;9.172;2022-08-19T03:29:14;18.40;;;12.43;;
7150;SDS011;3617;48.836;9.172;2022-08-19T03:31:41;17.80;;;12.70;;
7150;SDS011;3617;48.836;9.172;2022-08-19T03:34:08;18.20;;;12.05;;
7150;SDS011;3617;48.836;9.172;2022-08-19T03:36:34;20.87;;;13.90;;
7150;SDS011;3617;48.836;9.172;2022-08-19T03:39:01;18.33;;;13.37;;
7150;SDS011;3617;48.836;9.172;2022-08-19T03:41:28;17.85;;;12.35;;
7150;SDS011;3617;48.836;9.172;2022-08-19T03:43:55;19.60;;;12.55;;
7150;SDS011;3617;48.836;9.172;2022-08-19T03:46:22;18.25;;;12.60;;
7150;SDS011;3617;48.836;9.172;2022-08-19T03:48:50;19.95;;;13.05;;
7150;SDS011;3617;48.836;9.172;2022-08-19T03:51:19;17.17;;;12.65;;
7150;SDS011;3617;48.836;9.172;2022-08-19T03:53:46;20.85;;;13.70;;
7150;SDS011;3617;48.836;9.172;2022-08-19T03:56:13;18.90;;;13.10;;
7150;SDS011;3617;48.836;9.172;2022-08-19T03:58:39;20.33;;;13.82;;
7150;SDS011;3617;48.836;9.172;2022-08-19T04:01:09;18.13;;;13.20;;
7150;SDS011;3617;48.836;9.172;2022-08-19T04:03:36;20.67;;;13.57;;
7150;SDS011;3617;48.836;9.172;2022-08-19T04:08:37;20.88;;;13.07;;
7150;SDS011;3617;48.836;9.172;2022-08-19T04:11:06;21.25;;;14.18;;
7150;SDS011;3617;48.836;9.172;2022-08-19T04:13:32;20.80;;;14.68;;
7150;SDS011;3617;48.836;9.172;2022-08-19T04:15:59;19.10;;;13.15;;
7150;SDS011;3617;48.836;9.172;2022-08-19T04:18:25;22.33;;;14.35;;
7150;SDS011;3617;48.836;9.172;2022-08-19T04:20:51;20.42;;;13.65;;
7150;SDS011;3617;48.836;9.172;2022-08-19T04:23:17;19.63;;;13.30;;
7150;SDS011;3617;48.836;9.172;2022-08-19T04:25:43;22.53;;;14.13;;
7150;SDS011;3617;48.836;9.172;2022-08-19T04:28:11;23.00;;;14.43;;
7150;SDS011;3617;48.836;9.172;2022-08-19T04:30:38;17.47;;;13.87;;
7150;SDS011;3617;48.836;9.172;2022-08-19T04:33:04;20.60;;;14.40;;
7150;SDS011;3617;48.836;9.172;2022-08-19T04:35:34;21.60;;;14.38;;
7150;SDS011;3617;48.836;9.172;2022-08-19T04:38:01;20.20;;;14.77;;
7150;SDS011;3617;48.836;9.172;2022-08-19T04:40:27;21.25;;;14.20;;
7150;SDS011;3617;48.836;9.172;2022-08-19T04:43:12;21.17;;;14.50;;
7150;SDS011;3617;48.836;9.172;2022-08-19T04:45:40;21.63;;;14.60;;
7150;SDS011;3617;48.836;9.172;2022-08-19T04:48:06;19.55;;;14.02;;
7150;SDS011;3617;48.836;9.172;2022-08-19T04:50:32;20.33;;;14.23;;
7150;SDS011;3617;48.836;9.172;2022-08-19T04:52:58;19.38;;;14.13;;
7150;SDS011;3617;48.836;9.172;2022-08-19T04:55:24;21.57;;;14.83;;
7150;SDS011;3617;48.836;9.172;2022-08-19T04:57:50;20.77;;;14.63;;
7150;SDS011;3617;48.836;9.172;2022-08-19T05:00:16;20.40;;;14.18;;
7150;SDS011;3617;48.836;9.172;2022-08-19T05:02:42;22.03;;;13.87;;
7150;SDS011;3617;48.836;9.172;2022-08-19T05:05:08;19.23;;;13.40;;
7150;SDS011;3617;48.836;9.172;2022-08-19T05:07:35;20.50;;;14.15;;
7150;SDS011;3617;48.836;9.172;2022-08-19T05:10:01;21.30;;;14.73;;
7150;SDS011;3617;48.836;9.172;2022-08-19T05:12:27;19.05;;;12.77;;
7150;SDS011;3617;48.836;9.172;2022-08-19T05:14:53;19.35;;;14.07;;
7150;SDS011;3617;48.836;9.172;2022-08-19T05:17:21;17.93;;;12.83;;
7150;SDS011;3617;48.836;9.172;2022-08-19T05:19:47;18.75;;;13.75;;
7150;SDS011;3617;48.836;9.172;2022-08-19T05:22:32;19.33;;;14.23;;
7150;SDS011;3617;48.836;9.172;2022-08-19T05:25:13;22.00;;;13.83;;
7150;SDS011;3617;48.836;9.172;2022-08-19T05:27:40;20.13;;;13.32;;
7150;SDS011;3617;48.836;9.172;2022-08-19T05:30:06;18.58;;;14.02;;
7150;SDS011;3617;48.836;9.172;2022-08-19T05:32:32;21.07;;;14.40;;
7150;SDS011;3617;48.836;9.172;2022-08-19T05:34:58;21.70;;;13.90;;
7150;SDS011;3617;48.836;9.172;2022-08-19T05:37:24;19.17;;;14.00;;
7150;SDS011;3617;48.836;9.172;2022-08-19T05:39:52;23.00;;;14.38;;
7150;SDS011;3617;48.836;9.172;2022-08-19T05:42:19;19.65;;;13.82;;
7150;SDS011;3617;48.836;9.172;2022-08-19T05:44:47;20.92;;;14.35;;
7150;SDS011;3617;48.836;9.172;2022-08-19T05:47:14;19.55;;;14.63;;
7150;SDS011;3617;48.836;9.172;2022-08-19T05:49:40;23.08;;;14.23;;
7150;SDS011;3617;48.836;9.172;2022-08-19T05:52:08;20.33;;;14.05;;
7150;SDS011;3617;48.836;9.172;2022-08-19T05:54:36;17.05;;;13.15;;
7150;SDS011;3617;48.836;9.172;2022-08-19T05:57:04;18.42;;;13.85;;
7150;SDS011;3617;48.836;9.172;2022-08-19T05:59:30;20.02;;;14.10;;
7150;SDS011;3617;48.836;9.172;2022-08-19T06:01:56;19.92;;;13.95;;
7150;SDS011;3617;48.836;9.172;2022-08-19T06:04:23;20.05;;;14.27;;
7150;SDS011;3617;48.836;9.172;2022-08-19T06:06:50;18.33;;;13.05;;
7150;SDS011;3617;48.836;9.172;2022-08-19T06:09:17;19.50;;;13.75;;
7150;SDS011;3617;48.836;9.172;2022-08-19T06:11:44;20.30;;;13.45;;
7150;SDS011;3617;48.836;9.172;2022-08-19T06:14:14;22.30;;;14.27;;
7150;SDS011;3617;48.836;9.172;2022-08-19T06:16:41;20.13;;;14.20;;
7150;SDS011;3617;48.836;9.172;2022-08-19T06:19:08;20.23;;;14.60;;
7150;SDS011;3617;48.836;9.172;2022-08-19T06:21:36;20.58;;;13.80;;
7150;SDS011;3617;48.836;9.172;2022-08-19T06:24:04;20.65;;;13.50;;
7150;SDS011;3617;48.836;9.172;2022-08-19T06:26:31;21.20;;;14.15;;
7150;SDS011;3617;48.836;9.172;2022-08-19T06:28:57;20.27;;;13.75;;
7150;SDS011;3617;48.836;9.172;2022-08-19T06:31:24;18.40;;;13.18;;
7150;SDS011;3617;48.836;9.172;2022-08-19T06:33:51;19.73;;;13.82;;
7150;SDS011;3617;48.836;9.172;2022-08-19T06:36:17;20.92;;;14.52;;
7150;SDS011;3617;48.836;9.172;2022-08-19T06:38:43;19.42;;;13.93;;
7150;SDS011;3617;48.836;9.172;2022-08-19T06:41:09;18.63;;;13.98;;
7150;SDS011;3617;48.836;9.172;2022-08-19T06:43:36;21.60;;;14.95;;
7150;SDS011;3617;48.836;9.172;2022-08-19T06:46:03;23.20;;;15.20;;
7150;SDS011;3617;48.836;9.172;2022-08-19T06:48:29;21.80;;;14.27;;
7150;SDS011;3617;48.836;9.172;2022-08-19T06:50:56;19.58;;;14.10;;
7150;SDS011;3617;48.836;9.172;2022-08-19T06:53:22;23.50;;;15.20;;
7150;SDS011;3617;48.836;9.172;2022-08-19T06:55:48;20.90;;;15.02;;
7150;SDS011;3617;48.836;9.172;2022-08-19T06:58:25;20.53;;;14.83;;
7150;SDS011;3617;48.836;9.172;2022-08-19T07:00:51;23.55;;;14.80;;
7150;SDS011;3617;48.836;9.172;2022-08-19T07:03:17;23.70;;;15.25;;
7150;SDS011;3617;48.836;9.172;2022-08-19T07:05:43;18.58;;;13.70;;
7150;SDS011;3617;48.836;9.172;2022-08-19T07:08:09;25.40;;;15.07;;
7150;SDS011;3617;48.836;9.172;2022-08-19T07:10:35;21.95;;;14.70;;
7150;SDS011;3617;48.836;9.172;2022-08-19T07:13:01;21.83;;;15.13;;
7150;SDS011;3617;48.836;9.172;2022-08-19T07:15:28;21.15;;;14.23;;
7150;SDS011;3617;48.836;9.172;2022-08-19T07:17:54;19.92;;;13.55;;
7150;SDS011;3617;48.836;9.172;2022-08-19T07:20:20;19.83;;;13.40;;
7150;SDS011;3617;48.836;9.172;2022-08-19T07:22:46;21.92;;;14.27;;
7150;SDS011;3617;48.836;9.172;2022-08-19T07:25:13;20.83;;;13.93;;
7150;SDS011;3617;48.836;9.172;2022-08-19T07:27:39;20.13;;;13.68;;
7150;SDS011;3617;48.836;9.172;2022-08-19T07:30:05;18.55;;;13.43;;
7150;SDS011;3617;48.836;9.172;2022-08-19T07:32:31;18.63;;;13.40;;
7150;SDS011;3617;48.836;9.172;2022-08-19T07:34:57;18.50;;;13.77;;
7150;SDS011;3617;48.836;9.172;2022-08-19T07:37:25;20.15;;;13.20;;
7150;SDS011;3617;48.836;9.172;2022-08-19T07:39:53;19.95;;;12.77;;
7150;SDS011;3617;48.836;9.172;2022-08-19T07:42:19;17.55;;;12.65;;
7150;SDS011;3617;48.836;9.172;2022-08-19T07:44:46;20.73;;;13.30;;
7150;SDS011;3617;48.836;9.172;2022-08-19T07:47:12;18.27;;;13.52;;
7150;SDS011;3617;48.836;9.172;2022-08-19T07:49:40;20.13;;;13.68;;
7150;SDS011;3617;48.836;9.172;2022-08-19T07:52:07;17.63;;;13.30;;
7150;SDS011;3617;48.836;9.172;2022-08-19T07:54:35;19.83;;;12.57;;
7150;SDS011;3617;48.836;9.172;2022-08-19T07:57:01;18.20;;;12.30;;
7150;SDS011;3617;48.836;9.172;2022-08-19T07:59:27;20.83;;;11.95;;
7150;SDS011;3617;48.836;9.172;2022-08-19T08:01:54;18.90;;;12.18;;
7150;SDS011;3617;48.836;9.172;2022-08-19T08:04:21;17.70;;;12.30;;
7150;SDS011;3617;48.836;9.172;2022-08-19T08:07:06;18.40;;;12.60;;
7150;SDS011;3617;48.836;9.172;2022-08-19T08:09:51;18.33;;;12.48;;
7150;SDS011;3617;48.836;9.172;2022-08-19T08:12:27;17.30;;;11.52;;
7150;SDS011;3617;48.836;9.172;2022-08-19T08:14:56;17.17;;;11.80;;
7150;SDS011;3617;48.836;9.172;2022-08-19T08:17:23;16.92;;;11.60;;
7150;SDS011;3617;48.836;9.172;2022-08-19T08:19:49;16.17;;;11.55;;
7150;SDS011;3617;48.836;9.172;2022-08-19T08:22:16;17.20;;;12.50;;
7150;SDS011;3617;48.836;9.172;2022-08-19T08:25:05;17.00;;;12.05;;
7150;SDS011;3617;48.836;9.172;2022-08-19T08:27:35;18.27;;;11.82;;
7150;SDS011;3617;48.836;9.172;2022-08-19T08:30:01;22.45;;;12.40;;
7150;SDS011;3617;48.836;9.172;2022-08-19T08:32:27;15.02;;;11.07;;
7150;SDS011;3617;48.836;9.172;2022-08-19T08:34:53;16.67;;;12.20;;
7150;SDS011;3617;48.836;9.172;2022-08-19T08:37:19;18.27;;;12.68;;
7150;SDS011;3617;48.836;9.172;2022-08-19T08:39:47;19.27;;;13.52;;
7150;SDS011;3617;48.836;9.172;2022-08-19T08:42:16;17.77;;;12.95;;
7150;SDS011;3617;48.836;9.172;2022-08-19T08:44:52;20.17;;;13.18;;
7150;SDS011;3617;48.836;9.172;2022-08-19T08:47:20;18.40;;;13.43;;
7150;SDS011;3617;48.836;9.172;2022-08-19T08:49:59;20.13;;;13.13;;
7150;SDS011;3617;48.836;9.172;2022-08-19T08:52:36;21.07;;;14.37;;
7150;SDS011;3617;48.836;9.172;2022-08-19T08:55:11;20.73;;;14.23;;
7150;SDS011;3617;48.836;9.172;2022-08-19T08:57:44;18.60;;;13.50;;
7150;SDS011;3617;48.836;9.172;2022-08-19T09:00:26;20.48;;;13.68;;
7150;SDS011;3617;48.836;9.172;2022-08-19T09:02:53;18.52;;;13.63;;
7150;SDS011;3617;48.836;9.172;2022-08-19T09:05:20;17.83;;;12.43;;
7150;SDS011;3617;48.836;9.172;2022-08-19T09:08:00;19.92;;;12.52;;
7150;SDS011;3617;48.836;9.172;2022-08-19T09:15:47;19.83;;;12.45;;
7150;SDS011;3617;48.836;9.172;2022-08-19T09:18:15;18.05;;;12.50;;
7150;SDS011;3617;48.836;9.172;2022-08-19T09:20:42;16.77;;;12.75;;
7150;SDS011;3617;48.836;9.172;2022-08-19T09:23:08;16.13;;;12.18;;
7150;SDS011;3617;48.836;9.172;2022-08-19T09:25:35;15.52;;;11.50;;
7150;SDS011;3617;48.836;9.172;2022-08-19T09:28:01;16.35;;;11.88;;
7150;SDS011;3617;48.836;9.172;2022-08-19T09:30:29;15.30;;;11.30;;
7150;SDS011;3617;48.836;9.172;2022-08-19T09:32:56;18.25;;;11.30;;
7150;SDS011;3617;48.836;9.172;2022-08-19T09:35:22;15.15;;;9.95;;
7150;SDS011;3617;48.836;9.172;2022-08-19T09:37:49;14.80;;;10.63;;
7150;SDS011;3617;48.836;9.172;2022-08-19T09:40:15;15.07;;;10.70;;
7150;SDS011;3617;48.836;9.172;2022-08-19T09:42:42;14.68;;;10.50;;
7150;SDS011;3617;48.836;9.172;2022-08-19T09:45:08;13.80;;;11.10;;
7150;SDS011;3617;48.836;9.172;2022-08-19T09:47:35;17.17;;;11.10;;
7150;SDS011;3617;48.836;9.172;2022-08-19T09:50:03;13.13;;;9.75;;
7150;SDS011;3617;48.836;9.172;2022-08-19T09:52:30;14.95;;;10.85;;
7150;SDS011;3617;48.836;9.172;2022-08-19T09:54:56;13.80;;;10.15;;
7150;SDS011;3617;48.836;9.172;2022-08-19T09:57:22;12.00;;;9.27;;
7150;SDS011;3617;48.836;9.172;2022-08-19T09:59:48;12.82;;;9.73;;
7150;SDS011;3617;48.836;9.172;2022-08-19T10:02:14;13.10;;;9.25;;
7150;SDS011;3617;48.836;9.172;2022-08-19T10:04:40;16.83;;;9.93;;
7150;SDS011;3617;48.836;9.172;2022-08-19T10:07:24;13.52;;;9.95;;
7150;SDS011;3617;48.836;9.172;2022-08-19T10:09:50;12.02;;;9.10;;
7150;SDS011;3617;48.836;9.172;2022-08-19T10:12:16;15.80;;;10.52;;
7150;SDS011;3617;48.836;9.172;2022-08-19T10:14:42;14.30;;;9.98;;
7150;SDS011;3617;48.836;9.172;2022-08-19T10:17:09;11.25;;;9.20;;
7150;SDS011;3617;48.836;9.172;2022-08-19T10:19:35;13.40;;;9.27;;
7150;SDS011;3617;48.836;9.172;2022-08-19T10:22:05;11.65;;;9.48;;
7150;SDS011;3617;48.836;9.172;2022-08-19T10:24:32;12.95;;;9.77;;
7150;SDS011;3617;48.836;9.172;2022-08-19T10:26:58;12.95;;;8.63;;
7150;SDS011;3617;48.836;9.172;2022-08-19T10:29:25;13.10;;;9.02;;
7150;SDS011;3617;48.836;9.172;2022-08-19T10:31:53;12.95;;;8.63;;
7150;SDS011;3617;48.836;9.172;2022-08-19T10:34:19;11.35;;;8.90;;
7150;SDS011;3617;48.836;9.172;2022-08-19T10:36:45;11.80;;;8.93;;
7150;SDS011;3617;48.836;9.172;2022-08-19T10:39:11;10.65;;;8.05;;
7150;SDS011;3617;48.836;9.172;2022-08-19T10:41:38;10.40;;;7.50;;
7150;SDS011;3617;48.836;9.172;2022-08-19T10:44:06;10.60;;;7.95;;
7150;SDS011;3617;48.836;9.172;2022-08-19T10:46:33;9.57;;;7.57;;
7150;SDS011;3617;48.836;9.172;2022-08-19T10:49:00;9.88;;;7.93;;
7150;SDS011;3617;48.836;9.172;2022-08-19T10:51:26;11.65;;;7.65;;
7150;SDS011;3617;48.836;9.172;2022-08-19T10:54:11;8.32;;;6.90;;
7150;SDS011;3617;48.836;9.172;2022-08-19T10:56:37;9.45;;;7.22;;
7150;SDS011;3617;48.836;9.172;2022-08-19T10:59:20;7.50;;;6.20;;
7150;SDS011;3617;48.836;9.172;2022-08-19T11:01:47;9.43;;;6.75;;
7150;SDS011;3617;48.836;9.172;2022-08-19T11:04:14;8.15;;;6.47;;
7150;SDS011;3617;48.836;9.172;2022-08-19T11:06:42;8.90;;;6.38;;
7150;SDS011;3617;48.836;9.172;2022-08-19T11:09:10;8.77;;;6.43;;
7150;SDS011;3617;48.836;9.172;2022-08-19T11:11:36;9.75;;;6.43;;
7150;SDS011;3617;48.836;9.172;2022-08-19T11:14:06;8.20;;;6.43;;
7150;SDS011;3617;48.836;9.172;2022-08-19T11:16:32;9.32;;;6.60;;
7150;SDS011;3617;48.836;9.172;2022-08-19T11:18:59;7.90;;;6.43;;
7150;SDS011;3617;48.836;9.172;2022-08-19T11:21:27;8.63;;;6.15;;
7150;SDS011;3617;48.836;9.172;2022-08-19T11:23:54;7.07;;;6.00;;
7150;SDS011;3617;48.836;9.172;2022-08-19T11:26:22;7.55;;;6.00;;
7150;SDS011;3617;48.836;9.172;2022-08-19T11:28:49;7.43;;;6.40;;
7150;SDS011;3617;48.836;9.172;2022-08-19T11:31:22;7.40;;;6.00;;
7150;SDS011;3617;48.836;9.172;2022-08-19T11:33:48;10.30;;;5.90;;
7150;SDS011;3617;48.836;9.172;2022-08-19T11:36:18;7.18;;;6.00;;
7150;SDS011;3617;48.836;9.172;2022-08-19T11:38:45;8.25;;;6.28;;
7150;SDS011;3617;48.836;9.172;2022-08-19T11:41:13;8.07;;;6.20;;
7150;SDS011;3617;48.836;9.172;2022-08-19T11:43:39;7.28;;;5.82;;
7150;SDS011;3617;48.836;9.172;2022-08-19T11:46:05;9.15;;;6.50;;
7150;SDS011;3617;48.836;9.172;2022-08-19T11:48:31;8.48;;;6.45;;
7150;SDS011;3617;48.836;9.172;2022-08-19T11:50:57;8.95;;;6.50;;
7150;SDS011;3617;48.836;9.172;2022-08-19T11:53:23;7.95;;;5.97;;
7150;SDS011;3617;48.836;9.172;2022-08-19T11:55:50;6.43;;;5.68;;
7150;SDS011;3617;48.836;9.172;2022-08-19T11:58:20;7.32;;;5.72;;
7150;SDS011;3617;48.836;9.172;2022-08-19T12:00:47;8.20;;;6.00;;
7150;SDS011;3617;48.836;9.172;2022-08-19T12:03:13;8.52;;;6.60;;
7150;SDS011;3617;48.836;9.172;2022-08-19T12:05:39;8.70;;;6.35;;
7150;SDS011;3617;48.836;9.172;2022-08-19T12:08:05;9.45;;;6.82;;
7150;SDS011;3617;48.836;9.172;2022-08-19T12:10:32;9.57;;;6.65;;
7150;SDS011;3617;48.836;9.172;2022-08-19T12:12:58;9.90;;;6.57;;
7150;SDS011;3617;48.836;9.172;2022-08-19T12:15:24;12.52;;;7.07;;
7150;SDS011;3617;48.836;9.172;2022-08-19T12:17:52;8.48;;;6.60;;
7150;SDS011;3617;48.836;9.172;2022-08-19T12:20:21;9.35;;;6.57;;
7150;SDS011;3617;48.836;9.172;2022-08-19T12:22:47;10.10;;;6.75;;
7150;SDS011;3617;48.836;9.172;2022-08-19T12:25:14;14.70;;;7.00;;
7150;SDS011;3617;48.836;9.172;2022-08-19T12:27:40;10.15;;;7.03;;
7150;SDS011;3617;48.836;9.172;2022-08-19T12:30:06;9.70;;;7.65;;
7150;SDS011;3617;48.836;9.172;2022-08-19T12:32:33;6.90;;;6.15;;
7150;SDS011;3617;48.836;9.172;2022-08-19T12:34:59;9.00;;;6.95;;
7150;SDS011;3617;48.836;9.172;2022-08-19T12:37:26;8.82;;;6.78;;
7150;SDS011;3617;48.836;9.172;2022-08-19T12:39:52;11.00;;;7.25;;
7150;SDS011;3617;48.836;9.172;2022-08-19T12:42:18;7.68;;;6.53;;
7150;SDS011;3617;48.836;9.172;2022-08-19T12:44:44;6.95;;;6.07;;
7150;SDS011;3617;48.836;9.172;2022-08-19T12:47:11;7.53;;;5.32;;
7150;SDS011;3617;48.836;9.172;2022-08-19T12:49:38;7.75;;;6.25;;
7150;SDS011;3617;48.836;9.172;2022-08-19T12:52:05;9.20;;;5.95;;
7150;SDS011;3617;48.836;9.172;2022-08-19T12:54:32;10.02;;;6.30;;
7150;SDS011;3617;48.836;9.172;2022-08-19T12:56:58;9.07;;;5.85;;
7150;SDS011;3617;48.836;9.172;2022-08-19T12:59:25;10.50;;;6.70;;
7150;SDS011;3617;48.836;9.172;2022-08-19T13:01:51;7.18;;;6.05;;
7150;SDS011;3617;48.836;9.172;2022-08-19T13:04:17;7.32;;;5.85;;
7150;SDS011;3617;48.836;9.172;2022-08-19T13:06:43;6.40;;;5.70;;
7150;SDS011;3617;48.836;9.172;2022-08-19T13:09:09;5.55;;;4.78;;
7150;SDS011;3617;48.836;9.172;2022-08-19T13:11:36;7.78;;;5.40;;
7150;SDS011;3617;48.836;9.172;2022-08-19T13:14:03;5.90;;;5.30;;
7150;SDS011;3617;48.836;9.172;2022-08-19T13:16:29;6.75;;;5.25;;
7150;SDS011;3617;48.836;9.172;2022-08-19T13:18:56;11.90;;;7.38;;
7150;SDS011;3617;48.836;9.172;2022-08-19T13:21:23;10.55;;;8.07;;
7150;SDS011;3617;48.836;9.172;2022-08-19T13:23:50;12.55;;;9.20;;
7150;SDS011;3617;48.836;9.172;2022-08-19T13:26:16;12.90;;;9.23;;
7150;SDS011;3617;48.836;9.172;2022-08-19T13:28:42;11.40;;;8.73;;
7150;SDS011;3617;48.836;9.172;2022-08-19T13:31:29;12.23;;;9.27;;
7150;SDS011;3617;48.836;9.172;2022-08-19T13:34:14;14.55;;;10.77;;
7150;SDS011;3617;48.836;9.172;2022-08-19T13:36:40;14.98;;;11.50;;
7150;SDS011;3617;48.836;9.172;2022-08-19T13:39:07;17.70;;;11.93;;
7150;SDS011;3617;48.836;9.172;2022-08-19T13:41:33;19.52;;;13.35;;
7150;SDS011;3617;48.836;9.172;2022-08-19T13:44:00;18.08;;;14.07;;
7150;SDS011;3617;48.836;9.172;2022-08-19T13:46:26;19.60;;;14.77;;
7150;SDS011;3617;48.836;9.172;2022-08-19T13:48:55;23.30;;;15.52;;
7150;SDS011;3617;48.836;9.172;2022-08-19T13:51:21;21.15;;;15.20;;
7150;SDS011;3617;48.836;9.172;2022-08-19T13:53:47;22.92;;;15.57;;
7150;SDS011;3617;48.836;9.172;2022-08-19T13:56:15;23.95;;;15.82;;
7150;SDS011;3617;48.836;9.172;2022-08-19T13:58:41;24.00;;;17.15;;
7150;SDS011;3617;48.836;9.172;2022-08-19T14:01:08;25.75;;;17.60;;
7150;SDS011;3617;48.836;9.172;2022-08-19T14:03:34;22.88;;;16.80;;
7150;SDS011;3617;48.836;9.172;2022-08-19T14:06:00;23.15;;;16.55;;
7150;SDS011;3617;48.836;9.172;2022-08-19T14:08:26;24.27;;;16.58;;
7150;SDS011;3617;48.836;9.172;2022-08-19T14:10:53;26.15;;;16.80;;
7150;SDS011;3617;48.836;9.172;2022-08-19T14:13:20;28.33;;;17.00;;
7150;SDS011;3617;48.836;9.172;2022-08-19T14:15:46;25.23;;;17.45;;
7150;SDS011;3617;48.836;9.172;2022-08-19T14:18:13;23.05;;;16.15;;
7150;SDS011;3617;48.836;9.172;2022-08-19T14:20:39;28.92;;;17.85;;
7150;SDS011;3617;48.836;9.172;2022-08-19T14:23:05;27.60;;;17.25;;
7150;SDS011;3617;48.836;9.172;2022-08-19T14:25:31;27.85;;;17.60;;
7150;SDS011;3617;48.836;9.172;2022-08-19T14:27:58;29.38;;;17.95;;
7150;SDS011;3617;48.836;9.172;2022-08-19T14:30:25;27.70;;;17.75;;
7150;SDS011;3617;48.836;9.172;2022-08-19T14:32:52;24.65;;;16.88;;
7150;SDS011;3617;48.836;9.172;2022-08-19T14:35:19;25.20;;;17.65;;
7150;SDS011;3617;48.836;9.172;2022-08-19T14:37:47;24.65;;;16.80;;
7150;SDS011;3617;48.836;9.172;2022-08-19T14:40:14;25.52;;;16.17;;
7150;SDS011;3617;48.836;9.172;2022-08-19T14:42:40;28.85;;;17.13;;
7150;SDS011;3617;48.836;9.172;2022-08-19T14:45:07;23.95;;;17.10;;
7150;SDS011;3617;48.836;9.172;2022-08-19T14:47:33;22.58;;;15.68;;
7150;SDS011;3617;48.836;9.172;2022-08-19T14:49:59;25.20;;;16.17;;
7150;SDS011;3617;48.836;9.172;2022-08-19T14:52:25;22.23;;;15.20;;
7150;SDS011;3617;48.836;9.172;2022-08-19T14:54:51;23.48;;;14.95;;
7150;SDS011;3617;48.836;9.172;2022-08-19T14:57:17;20.98;;;15.80;;
7150;SDS011;3617;48.836;9.172;2022-08-19T14:59:44;20.58;;;14.90;;
7150;SDS011;3617;48.836;9.172;2022-08-19T15:02:11;23.27;;;14.85;;
7150;SDS011;3617;48.836;9.172;2022-08-19T15:04:37;21.90;;;14.40;;
7150;SDS011;3617;48.836;9.172;2022-08-19T15:07:03;20.58;;;14.60;;